Terminal Aerodrome Forecast
Issued by NWS

Home | Current Version | Previous Version | Text Only | Print | Product List | Glossary Off
Versions: 1 2 3 4 5 6 7 8 9 10 11 12 13 14 15 16 17 18 19

000
FTUS44 KLZK 220805 AAB
TAFLIT
TAF AMD
KLIT 220805Z 2208/2306 06008KT P6SM VCSH SCT050 BKN120
     FM220900 02009KT P6SM SCT007 BKN050
      TEMPO 2209/2212 6SM BR OVC007
     FM221200 36008G16KT 6SM -RA OVC008
      TEMPO 2212/2215 4SM BR BKN005 OVC008
     FM221500 32012G20KT P6SM SCT010 BKN025
     FM230000 35015G21KT P6SM OVC025=

USA.gov is the U.S. government's official web portal to all federal, state and local government web resources and services.